DLH250 EDDN-EDDH
Flight info
| Callsign | DLH250 |
|---|---|
| Flight time | 1h 12m |
| Altitude | 30000 |
| Route | ERETO1C/10 ERETO DCT LONLI M726 LASTO M852 LARET/N0444F340 M852 HLZ Z990 DIRBO/N0396F230 T902 RARUP RARUP3S |
| Aircraft | A320/M-VGDW/C |
Departure
| Time | 2026-04-25 07:32 |
|---|---|
| Airport | Nuremberg Airport (EDDN) |
Arrival
| Time | 2026-04-25 08:44 |
|---|---|
| Airport | Hamburg Helmut Schmidt Airport (EDDH) |
| Time | Latitude | Longitude | Altitude | Speed | Heading |
|---|---|---|---|---|---|
| 2026-04-25 06:59 | 49.49513 | 11.07790 | 1026 ft | 0 kts | 188° |
| 2026-04-25 07:24 | 49.49532 | 11.07794 | 1028 ft | 4 kts | 182° |
| 2026-04-25 07:24 | 49.49558 | 11.07792 | 1028 ft | 4 kts | 166° |
| 2026-04-25 07:25 | 49.49581 | 11.07776 | 1028 ft | 4 kts | 126° |
| 2026-04-25 07:25 | 49.49587 | 11.07761 | 1029 ft | 0 kts | 99° |
| 2026-04-25 07:27 | 49.49586 | 11.07772 | 1029 ft | 6 kts | 99° |
| 2026-04-25 07:28 | 49.49572 | 11.07909 | 1030 ft | 17 kts | 98° |
| 2026-04-25 07:28 | 49.49554 | 11.08096 | 1030 ft | 19 kts | 98° |
| 2026-04-25 07:28 | 49.49535 | 11.08297 | 1032 ft | 18 kts | 89° |
| 2026-04-25 07:28 | 49.49606 | 11.08379 | 1031 ft | 15 kts | 42° |
| 2026-04-25 07:29 | 49.49605 | 11.08547 | 1033 ft | 16 kts | 98° |
| 2026-04-25 07:29 | 49.49586 | 11.08738 | 1035 ft | 21 kts | 99° |
| 2026-04-25 07:29 | 49.49565 | 11.08965 | 1037 ft | 22 kts | 98° |
| 2026-04-25 07:29 | 49.49541 | 11.09202 | 1039 ft | 23 kts | 99° |
| 2026-04-25 07:30 | 49.49547 | 11.09387 | 1042 ft | 10 kts | 62° |
| 2026-04-25 07:30 | 49.49582 | 11.09462 | 1042 ft | 7 kts | 53° |
| 2026-04-25 07:30 | 49.49640 | 11.09564 | 1044 ft | 20 kts | 35° |
| 2026-04-25 07:30 | 49.49703 | 11.09478 | 1043 ft | 10 kts | 285° |
| 2026-04-25 07:31 | 49.49706 | 11.09457 | 1043 ft | 0 kts | 279° |
| 2026-04-25 07:31 | 49.49724 | 11.09287 | 1042 ft | 52 kts | 279° |
| 2026-04-25 07:31 | 49.49818 | 11.08345 | 1030 ft | 122 kts | 278° |
| 2026-04-25 07:31 | 49.49976 | 11.06773 | 1035 ft | 172 kts | 279° |
| 2026-04-25 07:32 | 49.50160 | 11.04861 | 1471 ft | 186 kts | 278° |
| 2026-04-25 07:32 | 49.50363 | 11.02760 | 1839 ft | 211 kts | 279° |
| 2026-04-25 07:32 | 49.50594 | 11.00392 | 2372 ft | 236 kts | 279° |
| 2026-04-25 07:32 | 49.50845 | 10.97808 | 3142 ft | 250 kts | 279° |
| 2026-04-25 07:33 | 49.51151 | 10.95150 | 4111 ft | 254 kts | 289° |
| 2026-04-25 07:33 | 49.52138 | 10.92919 | 5056 ft | 258 kts | 323° |
| 2026-04-25 07:33 | 49.53810 | 10.91903 | 6007 ft | 264 kts | 351° |
| 2026-04-25 07:33 | 49.55661 | 10.91757 | 6709 ft | 270 kts | 1° |
| 2026-04-25 07:34 | 49.57546 | 10.91944 | 6928 ft | 271 kts | 4° |
| 2026-04-25 07:34 | 49.59425 | 10.92214 | 6996 ft | 271 kts | 4° |
| 2026-04-25 07:34 | 49.61303 | 10.92451 | 7006 ft | 271 kts | 3° |
| 2026-04-25 07:34 | 49.63179 | 10.92626 | 7123 ft | 266 kts | 2° |
| 2026-04-25 07:35 | 49.64949 | 10.92735 | 8418 ft | 244 kts | 0° |
| 2026-04-25 07:35 | 49.66610 | 10.92812 | 9600 ft | 237 kts | 359° |
| 2026-04-25 07:35 | 49.68266 | 10.92974 | 10460 ft | 241 kts | 6° |
| 2026-04-25 07:35 | 49.69904 | 10.93621 | 11246 ft | 246 kts | 18° |
| 2026-04-25 07:36 | 49.71458 | 10.94791 | 12020 ft | 252 kts | 29° |
| 2026-04-25 07:36 | 49.72860 | 10.96449 | 12792 ft | 257 kts | 37° |
| 2026-04-25 07:36 | 49.74226 | 10.98266 | 13557 ft | 260 kts | 37° |
| 2026-04-25 07:36 | 49.75612 | 11.00098 | 14286 ft | 264 kts | 37° |
| 2026-04-25 07:37 | 49.77014 | 11.01957 | 14968 ft | 267 kts | 37° |
| 2026-04-25 07:37 | 49.78433 | 11.03841 | 15669 ft | 270 kts | 37° |
| 2026-04-25 07:37 | 49.79868 | 11.05746 | 16358 ft | 274 kts | 36° |
| 2026-04-25 07:37 | 49.80828 | 11.07021 | 16806 ft | 276 kts | 36° |
| 2026-04-25 07:38 | 49.82287 | 11.08980 | 17491 ft | 280 kts | 39° |
| 2026-04-25 07:38 | 49.83671 | 11.11143 | 18164 ft | 283 kts | 37° |
| 2026-04-25 07:38 | 49.85354 | 11.12594 | 18740 ft | 276 kts | 9° |
| 2026-04-25 07:38 | 49.87237 | 11.12821 | 19308 ft | 270 kts | 349° |
| 2026-04-25 07:39 | 49.89122 | 11.12542 | 19902 ft | 273 kts | 348° |
| 2026-04-25 07:39 | 49.91023 | 11.12282 | 20516 ft | 275 kts | 348° |
| 2026-04-25 07:39 | 49.92940 | 11.12035 | 21104 ft | 278 kts | 348° |
| 2026-04-25 07:39 | 49.94884 | 11.11790 | 21671 ft | 282 kts | 348° |
| 2026-04-25 07:40 | 49.96853 | 11.11543 | 22245 ft | 285 kts | 348° |
| 2026-04-25 07:40 | 49.98845 | 11.11300 | 22804 ft | 289 kts | 348° |
| 2026-04-25 07:40 | 50.00835 | 11.11061 | 23365 ft | 293 kts | 347° |
| 2026-04-25 07:40 | 50.02878 | 11.10812 | 23886 ft | 296 kts | 347° |
| 2026-04-25 07:41 | 50.04946 | 11.10557 | 24361 ft | 300 kts | 347° |
| 2026-04-25 07:41 | 50.07035 | 11.10299 | 24829 ft | 303 kts | 347° |
| 2026-04-25 07:41 | 50.09146 | 11.10036 | 25307 ft | 306 kts | 347° |
| 2026-04-25 07:41 | 50.11277 | 11.09773 | 25749 ft | 309 kts | 347° |
| 2026-04-25 07:42 | 50.13431 | 11.09506 | 26267 ft | 311 kts | 347° |
| 2026-04-25 07:42 | 50.15595 | 11.09235 | 26730 ft | 314 kts | 347° |
| 2026-04-25 07:42 | 50.17785 | 11.08957 | 27178 ft | 317 kts | 347° |
| 2026-04-25 07:42 | 50.19990 | 11.08677 | 27614 ft | 320 kts | 347° |
| 2026-04-25 07:43 | 50.22217 | 11.08395 | 28041 ft | 323 kts | 347° |
| 2026-04-25 07:43 | 50.24466 | 11.08113 | 28456 ft | 326 kts | 347° |
| 2026-04-25 07:43 | 50.26741 | 11.07828 | 28850 ft | 330 kts | 347° |
| 2026-04-25 07:43 | 50.29041 | 11.07541 | 29277 ft | 333 kts | 347° |
| 2026-04-25 07:44 | 50.31358 | 11.07251 | 29695 ft | 336 kts | 347° |
| 2026-04-25 07:44 | 50.33709 | 11.06954 | 29939 ft | 344 kts | 347° |
| 2026-04-25 07:44 | 50.36148 | 11.06640 | 29997 ft | 358 kts | 347° |
| 2026-04-25 07:44 | 50.38679 | 11.06311 | 29979 ft | 373 kts | 347° |
| 2026-04-25 07:45 | 50.41317 | 11.05967 | 29967 ft | 386 kts | 348° |
| 2026-04-25 07:45 | 50.44039 | 11.05618 | 29980 ft | 397 kts | 348° |
| 2026-04-25 07:45 | 50.49603 | 11.04934 | 29972 ft | 403 kts | 348° |
| 2026-04-25 07:46 | 50.55196 | 11.04255 | 29972 ft | 403 kts | 348° |
| 2026-04-25 07:46 | 50.60792 | 11.03559 | 29975 ft | 403 kts | 348° |
| 2026-04-25 07:47 | 50.66388 | 11.02841 | 29970 ft | 403 kts | 348° |
| 2026-04-25 07:47 | 50.71975 | 11.02116 | 29967 ft | 402 kts | 348° |
| 2026-04-25 07:48 | 50.77566 | 11.01393 | 29966 ft | 402 kts | 348° |
| 2026-04-25 07:48 | 50.83103 | 11.00689 | 29996 ft | 402 kts | 348° |
| 2026-04-25 07:49 | 50.88673 | 10.99983 | 29991 ft | 401 kts | 348° |
| 2026-04-25 07:49 | 50.94245 | 10.99264 | 29983 ft | 401 kts | 348° |
| 2026-04-25 07:50 | 50.99807 | 10.98537 | 29972 ft | 401 kts | 348° |
| 2026-04-25 07:50 | 51.05362 | 10.97816 | 29970 ft | 401 kts | 348° |
| 2026-04-25 07:51 | 51.10934 | 10.97094 | 29985 ft | 401 kts | 347° |
| 2026-04-25 07:51 | 51.16475 | 10.96373 | 29952 ft | 399 kts | 347° |
| 2026-04-25 07:52 | 51.22025 | 10.95644 | 29950 ft | 401 kts | 347° |
| 2026-04-25 07:52 | 51.27603 | 10.94912 | 29945 ft | 403 kts | 348° |
| 2026-04-25 07:53 | 51.33203 | 10.94189 | 29961 ft | 404 kts | 347° |
| 2026-04-25 07:53 | 51.38828 | 10.93455 | 29953 ft | 406 kts | 347° |
| 2026-04-25 07:54 | 51.44417 | 10.92718 | 29947 ft | 406 kts | 347° |
| 2026-04-25 07:54 | 51.50066 | 10.91966 | 29946 ft | 407 kts | 347° |
| 2026-04-25 07:55 | 51.55708 | 10.91215 | 29994 ft | 407 kts | 347° |
| 2026-04-25 07:55 | 51.61345 | 10.90469 | 29992 ft | 405 kts | 347° |
| 2026-04-25 07:56 | 51.66958 | 10.89722 | 29989 ft | 404 kts | 347° |
| 2026-04-25 07:56 | 51.72546 | 10.88879 | 29978 ft | 402 kts | 346° |
| 2026-04-25 07:57 | 51.78106 | 10.87883 | 29999 ft | 401 kts | 346° |
| 2026-04-25 07:57 | 51.83644 | 10.86884 | 30004 ft | 400 kts | 348° |
| 2026-04-25 07:58 | 51.89179 | 10.86048 | 29999 ft | 399 kts | 349° |
| 2026-04-25 07:58 | 51.94703 | 10.85327 | 29991 ft | 398 kts | 349° |
| 2026-04-25 07:59 | 52.00175 | 10.84588 | 29996 ft | 397 kts | 349° |
| 2026-04-25 07:59 | 52.05669 | 10.83807 | 30008 ft | 395 kts | 353° |
| 2026-04-25 08:00 | 52.11131 | 10.83029 | 30019 ft | 393 kts | 353° |
| 2026-04-25 08:00 | 52.16555 | 10.82262 | 29857 ft | 388 kts | 353° |
| 2026-04-25 08:01 | 52.19232 | 10.81891 | 29579 ft | 384 kts | 353° |
| 2026-04-25 08:01 | 52.21890 | 10.81525 | 29296 ft | 382 kts | 353° |
| 2026-04-25 08:01 | 52.24540 | 10.81161 | 29017 ft | 380 kts | 353° |
| 2026-04-25 08:01 | 52.27171 | 10.80797 | 28755 ft | 379 kts | 353° |
| 2026-04-25 08:02 | 52.29788 | 10.80435 | 28482 ft | 376 kts | 352° |
| 2026-04-25 08:02 | 52.32387 | 10.80076 | 28211 ft | 374 kts | 352° |
| 2026-04-25 08:02 | 52.34973 | 10.79720 | 27942 ft | 372 kts | 352° |
| 2026-04-25 08:02 | 52.37573 | 10.79645 | 27672 ft | 374 kts | 0° |
| 2026-04-25 08:03 | 52.40161 | 10.79912 | 27407 ft | 373 kts | 0° |
| 2026-04-25 08:03 | 52.42748 | 10.80180 | 27142 ft | 371 kts | 0° |
| 2026-04-25 08:03 | 52.45322 | 10.80449 | 26883 ft | 370 kts | 0° |
| 2026-04-25 08:03 | 52.47893 | 10.80715 | 26621 ft | 369 kts | 0° |
| 2026-04-25 08:04 | 52.50451 | 10.80978 | 26355 ft | 368 kts | 360° |
| 2026-04-25 08:04 | 52.53004 | 10.81241 | 26130 ft | 367 kts | 359° |
| 2026-04-25 08:04 | 52.55545 | 10.81507 | 25878 ft | 365 kts | 359° |
| 2026-04-25 08:04 | 52.58075 | 10.81776 | 25624 ft | 364 kts | 359° |
| 2026-04-25 08:05 | 52.60601 | 10.82044 | 25376 ft | 363 kts | 359° |
| 2026-04-25 08:05 | 52.63117 | 10.82309 | 25131 ft | 362 kts | 359° |
| 2026-04-25 08:05 | 52.65627 | 10.82569 | 24959 ft | 361 kts | 359° |
| 2026-04-25 08:05 | 52.68131 | 10.82824 | 24961 ft | 361 kts | 359° |
| 2026-04-25 08:06 | 52.70637 | 10.83082 | 24967 ft | 361 kts | 359° |
| 2026-04-25 08:06 | 52.73146 | 10.83342 | 24965 ft | 361 kts | 359° |
| 2026-04-25 08:06 | 52.75654 | 10.83601 | 24966 ft | 361 kts | 359° |
| 2026-04-25 08:06 | 52.78149 | 10.83862 | 24684 ft | 357 kts | 359° |
| 2026-04-25 08:07 | 52.80625 | 10.84127 | 24212 ft | 355 kts | 359° |
| 2026-04-25 08:07 | 52.83087 | 10.84315 | 23746 ft | 351 kts | 354° |
| 2026-04-25 08:07 | 52.85462 | 10.83956 | 23228 ft | 346 kts | 348° |
| 2026-04-25 08:07 | 52.87841 | 10.83460 | 22713 ft | 343 kts | 348° |
| 2026-04-25 08:08 | 52.90204 | 10.82978 | 22234 ft | 341 kts | 348° |
| 2026-04-25 08:08 | 52.92546 | 10.82508 | 21777 ft | 338 kts | 348° |
| 2026-04-25 08:08 | 52.94872 | 10.82042 | 21332 ft | 335 kts | 348° |
| 2026-04-25 08:08 | 52.97183 | 10.81580 | 20881 ft | 333 kts | 348° |
| 2026-04-25 08:09 | 52.99478 | 10.81117 | 20462 ft | 331 kts | 348° |
| 2026-04-25 08:09 | 53.01753 | 10.80656 | 20046 ft | 328 kts | 348° |
| 2026-04-25 08:09 | 53.04013 | 10.80195 | 19631 ft | 326 kts | 348° |
| 2026-04-25 08:09 | 53.06254 | 10.79733 | 19210 ft | 324 kts | 348° |
| 2026-04-25 08:10 | 53.08486 | 10.79274 | 18997 ft | 323 kts | 348° |
| 2026-04-25 08:10 | 53.10716 | 10.78814 | 18997 ft | 323 kts | 348° |
| 2026-04-25 08:10 | 53.12949 | 10.78355 | 19001 ft | 324 kts | 348° |
| 2026-04-25 08:10 | 53.15185 | 10.77897 | 19002 ft | 324 kts | 348° |
| 2026-04-25 08:11 | 53.17419 | 10.77438 | 18992 ft | 324 kts | 348° |
| 2026-04-25 08:11 | 53.19656 | 10.76978 | 18998 ft | 323 kts | 348° |
| 2026-04-25 08:11 | 53.21887 | 10.76517 | 18999 ft | 323 kts | 348° |
| 2026-04-25 08:11 | 53.24128 | 10.76053 | 18999 ft | 323 kts | 348° |
| 2026-04-25 08:12 | 53.26357 | 10.75590 | 19014 ft | 323 kts | 348° |
| 2026-04-25 08:12 | 53.28582 | 10.75126 | 18995 ft | 321 kts | 347° |
| 2026-04-25 08:12 | 53.30790 | 10.74665 | 18993 ft | 320 kts | 347° |
| 2026-04-25 08:12 | 53.33003 | 10.74205 | 18968 ft | 321 kts | 348° |
| 2026-04-25 08:13 | 53.35259 | 10.73733 | 18143 ft | 333 kts | 348° |
| 2026-04-25 08:13 | 53.37609 | 10.73238 | 17019 ft | 347 kts | 348° |
| 2026-04-25 08:13 | 53.40055 | 10.72722 | 15894 ft | 361 kts | 348° |
| 2026-04-25 08:14 | 53.45188 | 10.71650 | 13693 ft | 384 kts | 348° |
| 2026-04-25 08:14 | 53.47822 | 10.71114 | 13487 ft | 367 kts | 348° |
| 2026-04-25 08:14 | 53.50275 | 10.70623 | 13345 ft | 351 kts | 348° |
| 2026-04-25 08:14 | 53.52648 | 10.70142 | 13229 ft | 336 kts | 347° |
| 2026-04-25 08:15 | 53.54924 | 10.69673 | 13097 ft | 322 kts | 347° |
| 2026-04-25 08:15 | 53.57103 | 10.69226 | 12955 ft | 310 kts | 347° |
| 2026-04-25 08:15 | 53.59162 | 10.68567 | 12826 ft | 291 kts | 334° |
| 2026-04-25 08:15 | 53.60847 | 10.66882 | 12575 ft | 277 kts | 315° |
| 2026-04-25 08:16 | 53.62005 | 10.64364 | 12221 ft | 271 kts | 296° |
| 2026-04-25 08:16 | 53.62551 | 10.61345 | 11847 ft | 272 kts | 278° |
| 2026-04-25 08:16 | 53.62410 | 10.58176 | 11577 ft | 272 kts | 259° |
| 2026-04-25 08:16 | 53.61853 | 10.55180 | 11450 ft | 263 kts | 257° |
| 2026-04-25 08:17 | 53.61309 | 10.52294 | 11326 ft | 254 kts | 258° |
| 2026-04-25 08:17 | 53.60777 | 10.49518 | 11200 ft | 246 kts | 255° |
| 2026-04-25 08:17 | 53.60043 | 10.46944 | 11071 ft | 240 kts | 250° |
| 2026-04-25 08:17 | 53.59297 | 10.44461 | 10849 ft | 236 kts | 250° |
| 2026-04-25 08:18 | 53.58558 | 10.42001 | 10579 ft | 235 kts | 250° |
| 2026-04-25 08:18 | 53.57826 | 10.39555 | 10297 ft | 234 kts | 250° |
| 2026-04-25 08:18 | 53.57092 | 10.37114 | 9985 ft | 234 kts | 250° |
| 2026-04-25 08:18 | 53.56356 | 10.34674 | 9657 ft | 233 kts | 250° |
| 2026-04-25 08:19 | 53.55621 | 10.32242 | 9322 ft | 233 kts | 250° |
| 2026-04-25 08:19 | 53.54888 | 10.29816 | 8948 ft | 233 kts | 249° |
| 2026-04-25 08:19 | 53.54115 | 10.27400 | 8561 ft | 238 kts | 240° |
| 2026-04-25 08:19 | 53.53307 | 10.26108 | 8329 ft | 248 kts | 217° |
| 2026-04-25 08:20 | 53.51603 | 10.25431 | 7984 ft | 263 kts | 178° |
| 2026-04-25 08:20 | 53.49830 | 10.26372 | 7491 ft | 275 kts | 159° |
| 2026-04-25 08:20 | 53.48049 | 10.27807 | 6707 ft | 293 kts | 155° |
| 2026-04-25 08:20 | 53.46194 | 10.29448 | 5822 ft | 310 kts | 153° |
| 2026-04-25 08:21 | 53.44243 | 10.31211 | 4849 ft | 324 kts | 153° |
| 2026-04-25 08:21 | 53.42231 | 10.33014 | 3713 ft | 330 kts | 153° |
| 2026-04-25 08:21 | 53.40245 | 10.34765 | 3266 ft | 312 kts | 154° |
| 2026-04-25 08:21 | 53.38401 | 10.36363 | 3094 ft | 285 kts | 155° |
| 2026-04-25 08:22 | 53.36707 | 10.37815 | 2997 ft | 260 kts | 155° |
| 2026-04-25 08:22 | 53.35125 | 10.39157 | 3010 ft | 254 kts | 156° |
| 2026-04-25 08:22 | 53.33543 | 10.40475 | 3013 ft | 253 kts | 159° |
| 2026-04-25 08:22 | 53.31320 | 10.41089 | 3009 ft | 241 kts | 193° |
| 2026-04-25 08:23 | 53.30247 | 10.40604 | 3007 ft | 234 kts | 210° |
| 2026-04-25 08:23 | 53.28956 | 10.39087 | 3012 ft | 223 kts | 234° |
| 2026-04-25 08:23 | 53.28145 | 10.37001 | 3004 ft | 204 kts | 253° |
| 2026-04-25 08:23 | 53.27811 | 10.34821 | 3008 ft | 185 kts | 270° |
| 2026-04-25 08:24 | 53.27871 | 10.32749 | 3009 ft | 175 kts | 285° |
| 2026-04-25 08:24 | 53.28264 | 10.30864 | 3012 ft | 170 kts | 300° |
| 2026-04-25 08:24 | 53.28934 | 10.29268 | 3016 ft | 167 kts | 314° |
| 2026-04-25 08:24 | 53.29835 | 10.28038 | 3019 ft | 169 kts | 327° |
| 2026-04-25 08:25 | 53.30876 | 10.27136 | 3018 ft | 169 kts | 330° |
| 2026-04-25 08:25 | 53.31926 | 10.26247 | 3016 ft | 169 kts | 330° |
| 2026-04-25 08:25 | 53.32974 | 10.25359 | 3017 ft | 169 kts | 330° |
| 2026-04-25 08:25 | 53.34012 | 10.24478 | 3017 ft | 169 kts | 330° |
| 2026-04-25 08:26 | 53.35062 | 10.23584 | 3012 ft | 169 kts | 330° |
| 2026-04-25 08:26 | 53.36114 | 10.22690 | 3015 ft | 169 kts | 330° |
| 2026-04-25 08:26 | 53.37164 | 10.21798 | 3016 ft | 169 kts | 330° |
| 2026-04-25 08:26 | 53.38298 | 10.21288 | 3013 ft | 174 kts | 356° |
| 2026-04-25 08:27 | 53.39514 | 10.21519 | 3018 ft | 177 kts | 3° |
| 2026-04-25 08:27 | 53.40745 | 10.21845 | 3022 ft | 187 kts | 3° |
| 2026-04-25 08:27 | 53.42076 | 10.22179 | 3016 ft | 196 kts | 3° |
| 2026-04-25 08:27 | 53.43438 | 10.22524 | 3013 ft | 199 kts | 4° |
| 2026-04-25 08:28 | 53.44803 | 10.22876 | 3011 ft | 198 kts | 3° |
| 2026-04-25 08:28 | 53.46164 | 10.23231 | 3010 ft | 198 kts | 3° |
| 2026-04-25 08:28 | 53.47522 | 10.23585 | 3010 ft | 197 kts | 3° |
| 2026-04-25 08:28 | 53.48843 | 10.24319 | 3010 ft | 205 kts | 20° |
| 2026-04-25 08:29 | 53.50128 | 10.25364 | 3009 ft | 205 kts | 20° |
| 2026-04-25 08:29 | 53.51413 | 10.26400 | 3007 ft | 205 kts | 20° |
| 2026-04-25 08:29 | 53.52697 | 10.27433 | 3007 ft | 205 kts | 19° |
| 2026-04-25 08:29 | 53.53983 | 10.28466 | 3006 ft | 205 kts | 20° |
| 2026-04-25 08:30 | 53.55276 | 10.29505 | 3022 ft | 205 kts | 19° |
| 2026-04-25 08:30 | 53.56547 | 10.30531 | 3011 ft | 205 kts | 19° |
| 2026-04-25 08:30 | 53.57840 | 10.31575 | 3003 ft | 206 kts | 19° |
| 2026-04-25 08:30 | 53.59131 | 10.32621 | 3001 ft | 206 kts | 19° |
| 2026-04-25 08:31 | 53.60427 | 10.33672 | 2994 ft | 205 kts | 18° |
| 2026-04-25 08:31 | 53.61716 | 10.34717 | 2992 ft | 205 kts | 19° |
| 2026-04-25 08:31 | 53.63002 | 10.35763 | 2991 ft | 205 kts | 19° |
| 2026-04-25 08:31 | 53.64337 | 10.36839 | 2999 ft | 226 kts | 19° |
| 2026-04-25 08:32 | 53.65721 | 10.37964 | 2986 ft | 213 kts | 19° |
| 2026-04-25 08:32 | 53.67030 | 10.39044 | 2988 ft | 208 kts | 19° |
| 2026-04-25 08:32 | 53.68319 | 10.40105 | 2988 ft | 205 kts | 19° |
| 2026-04-25 08:32 | 53.69604 | 10.41157 | 2987 ft | 204 kts | 19° |
| 2026-04-25 08:33 | 53.70886 | 10.42201 | 2985 ft | 206 kts | 19° |
| 2026-04-25 08:33 | 53.72180 | 10.43253 | 2986 ft | 207 kts | 19° |
| 2026-04-25 08:33 | 53.73478 | 10.44314 | 2985 ft | 207 kts | 19° |
| 2026-04-25 08:33 | 53.74766 | 10.45375 | 2984 ft | 206 kts | 21° |
| 2026-04-25 08:34 | 53.75917 | 10.46903 | 2988 ft | 216 kts | 42° |
| 2026-04-25 08:34 | 53.76921 | 10.48783 | 2985 ft | 211 kts | 31° |
| 2026-04-25 08:34 | 53.78183 | 10.49849 | 2984 ft | 199 kts | 5° |
| 2026-04-25 08:34 | 53.79523 | 10.49840 | 2996 ft | 189 kts | 340° |
| 2026-04-25 08:35 | 53.80734 | 10.49091 | 2986 ft | 188 kts | 334° |
| 2026-04-25 08:35 | 53.81952 | 10.48288 | 2976 ft | 188 kts | 334° |
| 2026-04-25 08:35 | 53.83108 | 10.47291 | 2983 ft | 185 kts | 317° |
| 2026-04-25 08:35 | 53.83843 | 10.45560 | 2983 ft | 183 kts | 289° |
| 2026-04-25 08:36 | 53.83910 | 10.43410 | 2988 ft | 189 kts | 260° |
| 2026-04-25 08:36 | 53.83239 | 10.41425 | 2986 ft | 201 kts | 237° |
| 2026-04-25 08:36 | 53.82448 | 10.39508 | 2984 ft | 197 kts | 245° |
| 2026-04-25 08:36 | 53.81783 | 10.37473 | 2984 ft | 197 kts | 246° |
| 2026-04-25 08:37 | 53.80990 | 10.35556 | 2983 ft | 200 kts | 239° |
| 2026-04-25 08:37 | 53.80123 | 10.33706 | 2985 ft | 201 kts | 238° |
| 2026-04-25 08:37 | 53.79236 | 10.31870 | 2978 ft | 201 kts | 237° |
| 2026-04-25 08:37 | 53.78370 | 10.30110 | 3015 ft | 188 kts | 237° |
| 2026-04-25 08:38 | 53.77562 | 10.28492 | 3000 ft | 168 kts | 238° |
| 2026-04-25 08:38 | 53.76860 | 10.27084 | 2992 ft | 147 kts | 239° |
| 2026-04-25 08:38 | 53.76238 | 10.25815 | 3011 ft | 135 kts | 241° |
| 2026-04-25 08:38 | 53.75660 | 10.24601 | 3006 ft | 130 kts | 241° |
| 2026-04-25 08:39 | 53.75096 | 10.23419 | 3003 ft | 128 kts | 240° |
| 2026-04-25 08:39 | 53.74531 | 10.22248 | 3003 ft | 129 kts | 240° |
| 2026-04-25 08:39 | 53.73960 | 10.21071 | 3002 ft | 130 kts | 240° |
| 2026-04-25 08:39 | 53.73386 | 10.19894 | 3005 ft | 130 kts | 240° |
| 2026-04-25 08:40 | 53.72810 | 10.18713 | 3009 ft | 130 kts | 240° |
| 2026-04-25 08:40 | 53.72231 | 10.17529 | 2865 ft | 131 kts | 240° |
| 2026-04-25 08:40 | 53.71656 | 10.16358 | 2648 ft | 129 kts | 239° |
| 2026-04-25 08:40 | 53.71091 | 10.15204 | 2451 ft | 127 kts | 238° |
| 2026-04-25 08:41 | 53.70534 | 10.14069 | 2268 ft | 125 kts | 238° |
| 2026-04-25 08:41 | 53.69978 | 10.12935 | 2086 ft | 126 kts | 238° |
| 2026-04-25 08:41 | 53.69421 | 10.11800 | 1912 ft | 126 kts | 238° |
| 2026-04-25 08:41 | 53.68861 | 10.10658 | 1738 ft | 126 kts | 238° |
| 2026-04-25 08:42 | 53.68302 | 10.09521 | 1564 ft | 125 kts | 239° |
| 2026-04-25 08:42 | 53.67749 | 10.08395 | 1384 ft | 126 kts | 239° |
| 2026-04-25 08:42 | 53.67188 | 10.07254 | 1203 ft | 127 kts | 240° |
| 2026-04-25 08:42 | 53.66623 | 10.06106 | 1031 ft | 128 kts | 238° |
| 2026-04-25 08:43 | 53.66061 | 10.04964 | 851 ft | 124 kts | 239° |
| 2026-04-25 08:43 | 53.65507 | 10.03840 | 678 ft | 125 kts | 237° |
| 2026-04-25 08:43 | 53.64955 | 10.02718 | 514 ft | 124 kts | 239° |
| 2026-04-25 08:43 | 53.64405 | 10.01602 | 355 ft | 124 kts | 239° |
| 2026-04-25 08:44 | 53.63842 | 10.00474 | 164 ft | 126 kts | 238° |
| 2026-04-25 08:44 | 53.63293 | 9.99363 | 56 ft | 120 kts | 244° |
| 2026-04-25 08:44 | 53.62813 | 9.98344 | 45 ft | 99 kts | 231° |
| 2026-04-25 08:44 | 53.62496 | 9.97715 | 41 ft | 48 kts | 230° |
| 2026-04-25 08:45 | 53.62311 | 9.97382 | 43 ft | 30 kts | 207° |
| 2026-04-25 08:45 | 53.62201 | 9.97430 | 41 ft | 0 kts | 124° |
| 2026-04-25 08:45 | 53.62185 | 9.97481 | 40 ft | 16 kts | 109° |
| 2026-04-25 08:45 | 53.62243 | 9.97707 | 41 ft | 24 kts | 52° |
| 2026-04-25 08:46 | 53.62335 | 9.97897 | 41 ft | 20 kts | 50° |
| 2026-04-25 08:46 | 53.62424 | 9.98072 | 41 ft | 20 kts | 45° |
| 2026-04-25 08:46 | 53.62531 | 9.98232 | 42 ft | 21 kts | 45° |
| 2026-04-25 08:46 | 53.62628 | 9.98425 | 42 ft | 22 kts | 50° |
| 2026-04-25 08:47 | 53.62726 | 9.98622 | 43 ft | 22 kts | 51° |
| 2026-04-25 08:47 | 53.62827 | 9.98826 | 43 ft | 23 kts | 52° |
| 2026-04-25 08:47 | 53.62932 | 9.99037 | 44 ft | 24 kts | 49° |
| 2026-04-25 08:47 | 53.63039 | 9.99256 | 44 ft | 18 kts | 52° |
| 2026-04-25 08:48 | 53.63108 | 9.99419 | 44 ft | 15 kts | 56° |
| 2026-04-25 08:48 | 53.63179 | 9.99583 | 44 ft | 23 kts | 51° |
| 2026-04-25 08:48 | 53.63202 | 9.99631 | 44 ft | 0 kts | 51° |
| 2026-04-25 08:48 | 53.63233 | 9.99689 | 45 ft | 15 kts | 45° |
| 2026-04-25 08:49 | 53.63326 | 9.99854 | 45 ft | 20 kts | 51° |
| 2026-04-25 08:49 | 53.63410 | 10.00026 | 46 ft | 18 kts | 50° |
| 2026-04-25 08:49 | 53.63399 | 10.00198 | 46 ft | 15 kts | 128° |
| 2026-04-25 08:49 | 53.63364 | 10.00229 | 46 ft | 1 kts | 176° |
| 2026-04-25 08:50 | 53.63358 | 10.00230 | 46 ft | 1 kts | 176° |
| 2026-04-25 08:50 | 53.63344 | 10.00231 | 45 ft | 3 kts | 176° |
| 2026-04-25 08:50 | 53.63318 | 10.00246 | 44 ft | 10 kts | 149° |
| 2026-04-25 08:50 | 53.63283 | 10.00336 | 46 ft | 4 kts | 95° |
| 2026-04-25 08:51 | 53.63284 | 10.00371 | 46 ft | 0 kts | 88° |